Arcadia, Indiana
Current Conditions -  °F | °C
As of 6:15 AM on Friday 24 Oct 2014 (Local Time) from KTYQ Reporting Station
Scattered Clouds Scattered Clouds  
Wind Chill: 38°   Ceiling: Unl
Heat Index: 38°   Visibility: 7mi
Dew Point: 36°   Wind: 0mph
Humidity: 89%   Direction: NA
Pressure: 30.11"   Gusts: NA
Location:  40.18°N, 86.02°W
Report Text: KTYQ 241015Z AUTO 00000KT 7SM SCT065 04/02 A3011 RMK AO2 T00360020
Loading
Personal Weather Stations






























Interactive Weather Map
Tropical Storm Tracking
New forecast layout! Learn more

10-Day Weather Forecast

Advertisements
Track Severe Weather on mobile